Portada
METAR-TAF:

METAR-TAF

Aeroports :

Maiduguri, Nigèria

latitud: 11-51N, longitud: 013-05E, altitud: 354 m

METAR: manca

Hora: 09:05 (08:05 UTC)

Pronòstic

L'informe es va fer fa 15 hores i 5 minuts, a les 17:00 UTC
Pronòstic vàlid del 29 a les 18 UTC al 30 a les 24 UTC
Vent 7 kt del Est
Visibilitat: 3000 m
calitja
Temporalment
l' 29 a les 22 UTC al 30 a les 04 UTC
Visibilitat: 6000 m

TAF: DNMA 291700Z 2918/3024 09007KT 3000 HZ NSC TEMPO 2922/3004 6000 NSW

Observacions i pronòstics meteorològics de més de 4000 aeroports (METAR i TAF).

Les estacions disponibles són els punts grocs i vermells al mapa.

Posi el ratolí al punt desitjat per veure el nom de l'estació.

Feu clic per veure les observacions i els pronòstics meteorològics.

Per canviar el mapa: feu clic els botons verds amb una creu de color negre per apropar; al botó verd amb un guió per allunyar la imatge; o en les fletxes verdes per a mapes adjacents.


METAR-TAF: